Time;durP1;ratioP1;P1;durP2;ratioP2;P2;SDS_P1;SDS_P2;PMS_P1;PMS_P2;Temp;Humidity;BMP_temperature;BMP_pressure;BME280_temperature;BME280_humidity;BME280_pressure;Samples;Min_cycle;Max_cycle;Signal;HPM_P1;HPM_P2
2021/01/17 00:01:18;;;;;;;72.45;33.60;;;-0.30;99.90;;;;;;4146166;28;20397;-78
2021/01/17 00:03:20;;;;;;;77.20;35.65;;;-0.30;99.90;;;;;;4145600;28;20058;-78
2021/01/17 00:05:26;;;;;;;84.20;37.22;;;-0.30;99.90;;;;;;4147333;28;20533;-78
2021/01/17 00:07:30;;;;;;;85.72;37.72;;;-0.30;99.90;;;;;;4147027;28;20034;-78
2021/01/17 00:09:31;;;;;;;80.80;35.83;;;-0.30;99.90;;;;;;4147248;28;20041;-78
2021/01/17 00:11:31;;;;;;;75.15;34.50;;;-0.30;99.90;;;;;;4147132;28;20034;-79
2021/01/17 00:13:32;;;;;;;78.30;36.67;;;-0.30;99.90;;;;;;4135710;28;20038;-79
2021/01/17 00:15:33;;;;;;;83.10;37.40;;;-0.20;99.90;;;;;;4141958;28;20038;-79
2021/01/17 00:17:34;;;;;;;82.35;38.15;;;-0.30;99.90;;;;;;4147014;28;20129;-79
2021/01/17 00:19:35;;;;;;;75.15;35.00;;;-0.30;99.90;;;;;;4147024;28;20041;-78
2021/01/17 00:21:42;;;;;;;75.85;36.08;;;-0.30;99.90;;;;;;4147148;28;20515;-79
2021/01/17 00:23:43;;;;;;;77.25;36.95;;;-0.30;99.90;;;;;;4145703;28;20057;-79
2021/01/17 00:25:43;;;;;;;79.50;36.95;;;-0.20;99.90;;;;;;4146979;28;20045;-79
2021/01/17 00:27:45;;;;;;;75.45;33.22;;;-0.30;99.90;;;;;;4146880;28;20029;-79
2021/01/17 00:29:45;;;;;;;81.10;36.97;;;-0.20;99.90;;;;;;4147253;28;20462;-76
2021/01/17 00:31:49;;;;;;;67.25;32.47;;;-0.20;99.90;;;;;;4145748;28;20030;-77
2021/01/17 00:33:49;;;;;;;73.63;34.28;;;-0.20;99.90;;;;;;4145403;28;20065;-77
2021/01/17 00:35:50;;;;;;;88.20;36.38;;;-0.20;99.90;;;;;;4146294;28;20030;-77
2021/01/17 00:37:54;;;;;;;85.35;36.75;;;-0.20;99.90;;;;;;4146029;28;20103;-77
2021/01/17 00:39:55;;;;;;;75.70;32.13;;;-0.20;99.90;;;;;;4140857;28;20033;-77
2021/01/17 00:41:55;;;;;;;79.80;35.88;;;-0.20;99.90;;;;;;4146654;28;20109;-78
2021/01/17 00:43:56;;;;;;;77.32;32.85;;;-0.20;99.90;;;;;;4146731;28;20026;-77
2021/01/17 00:45:57;;;;;;;80.28;36.53;;;-0.20;99.90;;;;;;4146704;28;20624;-77
2021/01/17 00:47:57;;;;;;;78.20;34.40;;;-0.20;99.90;;;;;;4146680;28;20030;-78
2021/01/17 00:49:58;;;;;;;73.35;33.08;;;-0.20;99.90;;;;;;4146607;28;20554;-78
2021/01/17 00:51:58;;;;;;;80.18;35.72;;;-0.20;99.90;;;;;;4143588;28;20038;-78
2021/01/17 00:53:59;;;;;;;83.35;35.58;;;-0.20;99.90;;;;;;4157961;28;20044;-77
2021/01/17 00:55:59;;;;;;;78.88;36.05;;;-0.20;99.90;;;;;;4179385;28;20028;-77
2021/01/17 00:58:00;;;;;;;83.25;35.75;;;-0.10;99.90;;;;;;4179247;28;20083;-77
2021/01/17 01:00:01;;;;;;;77.55;35.83;;;-0.10;99.90;;;;;;4179607;28;20041;-77
2021/01/17 01:02:03;;;;;;;86.30;37.25;;;-0.10;99.90;;;;;;4161423;28;20026;-78
2021/01/17 01:04:04;;;;;;;79.00;36.25;;;-0.10;99.90;;;;;;4179265;28;20059;-78
2021/01/17 01:06:05;;;;;;;76.82;34.35;;;-0.10;99.90;;;;;;4179452;28;20387;-79
2021/01/17 01:08:07;;;;;;;82.55;35.47;;;-0.10;99.90;;;;;;4179766;28;20025;-79
2021/01/17 01:10:08;;;;;;;79.60;36.63;;;-0.10;99.90;;;;;;4181327;28;20041;-78
2021/01/17 01:12:09;;;;;;;88.93;37.97;;;-0.10;99.90;;;;;;4182581;28;20075;-78
2021/01/17 01:14:09;;;;;;;81.45;37.22;;;-0.10;99.90;;;;;;4182423;28;20033;-76
2021/01/17 01:16:17;;;;;;;86.03;35.38;;;-0.10;99.90;;;;;;4182245;28;20025;-76
2021/01/17 01:18:17;;;;;;;82.15;35.63;;;-0.10;99.90;;;;;;4163582;28;20120;-78
2021/01/17 01:20:18;;;;;;;81.32;35.53;;;-0.10;99.90;;;;;;4164518;28;20025;-78
2021/01/17 01:22:19;;;;;;;88.18;38.45;;;-0.10;99.90;;;;;;4163690;28;20423;-78
2021/01/17 01:24:19;;;;;;;89.35;35.72;;;-0.10;99.90;;;;;;4180570;28;20120;-77
2021/01/17 01:26:24;;;;;;;82.80;36.42;;;-0.10;99.90;;;;;;4162933;28;20029;-76
2021/01/17 01:28:25;;;;;;;98.25;37.72;;;-0.10;99.90;;;;;;4163162;28;20026;-76
2021/01/17 01:30:25;;;;;;;95.75;36.75;;;-0.10;99.90;;;;;;4180767;28;20099;-77
2021/01/17 01:32:26;;;;;;;89.28;39.42;;;-0.10;99.90;;;;;;4163276;28;20576;-76
2021/01/17 01:34:26;;;;;;;92.85;38.47;;;-0.10;99.90;;;;;;4180660;28;20122;-76
2021/01/17 01:36:32;;;;;;;97.38;36.90;;;-0.10;99.90;;;;;;4162917;28;20401;-76
2021/01/17 01:38:33;;;;;;;96.45;39.13;;;-0.10;99.90;;;;;;4180793;28;20536;-76
2021/01/17 01:40:34;;;;;;;99.78;40.80;;;-0.10;99.90;;;;;;4163161;28;20029;-76
2021/01/17 01:42:39;;;;;;;101.55;39.58;;;0.00;99.90;;;;;;4180403;28;20472;-76
2021/01/17 01:44:40;;;;;;;112.10;42.55;;;-0.10;99.90;;;;;;4180326;28;20043;-77
2021/01/17 01:46:42;;;;;;;107.82;37.80;;;0.00;99.90;;;;;;4180591;28;20124;-76
2021/01/17 01:48:44;;;;;;;96.50;36.25;;;0.00;99.90;;;;;;4180809;28;20033;-76
2021/01/17 01:50:46;;;;;;;99.78;37.65;;;0.00;99.90;;;;;;4162781;28;20026;-78
2021/01/17 01:52:47;;;;;;;101.85;40.05;;;0.00;99.90;;;;;;4181197;28;20039;-76
2021/01/17 01:54:48;;;;;;;101.13;38.53;;;0.00;99.90;;;;;;4182068;28;20037;-75
2021/01/17 01:56:52;;;;;;;112.35;38.88;;;0.00;99.90;;;;;;4181721;28;20078;-76
2021/01/17 01:58:54;;;;;;;102.60;37.33;;;0.00;99.90;;;;;;4164183;28;20037;-78
2021/01/17 02:00:55;;;;;;;100.50;38.92;;;0.00;99.90;;;;;;4182118;28;20029;-76
2021/01/17 02:02:55;;;;;;;99.32;37.55;;;0.00;99.90;;;;;;4181764;28;20025;-75
2021/01/17 02:04:56;;;;;;;97.25;37.47;;;0.00;99.90;;;;;;4163807;28;20037;-76
2021/01/17 02:07:05;;;;;;;104.55;37.67;;;0.00;99.90;;;;;;4164090;28;20030;-76
2021/01/17 02:09:15;;;;;;;104.68;39.63;;;0.00;99.90;;;;;;4181251;28;20503;-76
2021/01/17 02:11:47;;;;;;;97.55;35.90;;;0.10;99.90;;;;;;4181801;28;20408;-77
2021/01/17 02:14:08;;;;;;;103.07;36.88;;;0.10;99.90;;;;;;4163698;28;20045;-78
2021/01/17 02:16:09;;;;;;;105.20;37.38;;;0.00;99.90;;;;;;4181241;28;20653;-76
2021/01/17 02:18:10;;;;;;;103.50;38.50;;;0.00;99.90;;;;;;4162475;28;20028;-76
2021/01/17 02:20:14;;;;;;;86.13;33.08;;;0.00;99.90;;;;;;4161848;28;20030;-77
2021/01/17 02:22:19;;;;;;;104.97;38.05;;;0.00;99.90;;;;;;4179851;28;20511;-77
2021/01/17 02:24:29;;;;;;;96.85;35.70;;;0.00;99.90;;;;;;4179828;28;20029;-77
2021/01/17 02:26:30;;;;;;;105.85;38.85;;;0.00;99.90;;;;;;4179833;28;20041;-77
2021/01/17 02:28:31;;;;;;;93.03;36.03;;;0.10;99.90;;;;;;4162111;28;20038;-77
2021/01/17 02:30:36;;;;;;;105.57;38.58;;;0.00;99.90;;;;;;4179667;28;20396;-77
2021/01/17 02:32:42;;;;;;;96.70;38.20;;;0.00;99.90;;;;;;4179660;28;20070;-77
2021/01/17 02:34:44;;;;;;;107.95;38.05;;;0.00;99.90;;;;;;4162009;28;20037;-77
2021/01/17 02:37:04;;;;;;;101.32;38.50;;;0.00;99.90;;;;;;4179767;28;20437;-78
2021/01/17 02:39:36;;;;;;;96.75;37.65;;;0.00;99.90;;;;;;4179122;28;20035;-77
2021/01/17 02:41:59;;;;;;;101.32;38.30;;;0.00;99.90;;;;;;4157600;28;20037;-77
2021/01/17 02:44:03;;;;;;;97.18;35.13;;;0.00;99.90;;;;;;4179280;28;20083;-76
2021/01/17 02:46:03;;;;;;;;;;;0.10;99.90;;;;;;4179728;28;20041;-77
2021/01/17 02:48:04;;;;;;;90.40;31.42;;;0.10;99.90;;;;;;4180289;28;20420;-75
2021/01/17 02:50:08;;;;;;;111.50;34.78;;;0.10;99.90;;;;;;4163085;28;20060;-75
2021/01/17 02:52:11;;;;;;;92.05;33.88;;;0.10;99.90;;;;;;4181097;28;20459;-75
2021/01/17 02:54:37;;;;;;;85.60;32.30;;;0.10;99.90;;;;;;4180796;28;20041;-75
2021/01/17 02:56:42;;;;;;;91.30;33.00;;;0.10;99.90;;;;;;4179051;28;20041;-75
2021/01/17 02:58:47;;;;;;;91.75;34.10;;;0.10;99.90;;;;;;4180867;28;20392;-75
2021/01/17 03:00:52;;;;;;;87.88;34.17;;;0.10;99.90;;;;;;4180906;28;20061;-75
2021/01/17 03:02:56;;;;;;;94.30;35.33;;;0.10;99.90;;;;;;4180617;28;20087;-76
2021/01/17 03:04:59;;;;;;;98.25;33.95;;;0.10;99.90;;;;;;4163221;28;20025;-76
2021/01/17 03:07:04;;;;;;;93.38;34.72;;;0.10;99.90;;;;;;4180910;28;20029;-75
2021/01/17 03:09:05;;;;;;;93.03;35.03;;;0.10;99.90;;;;;;4161694;28;20056;-75
2021/01/17 03:11:06;;;;;;;91.70;35.30;;;0.10;99.90;;;;;;4183008;28;20029;-75
2021/01/17 03:13:09;;;;;;;87.75;32.42;;;0.10;99.90;;;;;;4181803;28;20044;-75
2021/01/17 03:15:11;;;;;;;94.78;34.63;;;0.10;99.90;;;;;;4183192;28;20029;-75
2021/01/17 03:17:12;;;;;;;92.22;34.63;;;0.10;99.90;;;;;;4181439;28;20052;-75
2021/01/17 03:19:12;;;;;;;89.88;34.28;;;0.10;99.90;;;;;;4180752;28;20033;-77
2021/01/17 03:21:13;;;;;;;97.97;35.95;;;0.10;99.90;;;;;;4180580;28;20092;-75
2021/01/17 03:23:14;;;;;;;94.75;34.95;;;0.10;99.90;;;;;;4182222;28;20029;-77
2021/01/17 03:25:14;;;;;;;104.20;36.45;;;0.10;99.90;;;;;;4163531;28;20029;-75
2021/01/17 03:27:15;;;;;;;95.05;32.80;;;0.10;99.90;;;;;;4182033;28;20063;-76
2021/01/17 03:29:17;;;;;;;96.78;35.85;;;0.10;99.90;;;;;;4182380;28;20063;-75
2021/01/17 03:31:18;;;;;;;85.43;34.92;;;0.20;99.90;;;;;;4181673;28;20059;-75
2021/01/17 03:33:18;;;;;;;94.30;34.60;;;0.10;99.90;;;;;;4180720;28;20384;-78
2021/01/17 03:35:20;;;;;;;94.88;34.72;;;0.20;99.90;;;;;;4181088;28;20025;-77
2021/01/17 03:37:21;;;;;;;94.00;34.72;;;0.20;99.90;;;;;;4181334;28;20025;-78
2021/01/17 03:39:21;;;;;;;84.50;32.42;;;0.20;99.90;;;;;;4162301;28;20112;-78
2021/01/17 03:41:24;;;;;;;91.18;33.65;;;0.20;99.90;;;;;;4180409;28;20044;-78
2021/01/17 03:43:24;;;;;;;94.65;33.70;;;0.20;99.90;;;;;;4180817;28;20032;-78
2021/01/17 03:45:25;;;;;;;88.95;33.42;;;0.20;99.90;;;;;;4182402;28;20464;-78
2021/01/17 03:47:25;;;;;;;99.30;35.28;;;0.20;99.90;;;;;;4183274;28;20473;-78
2021/01/17 03:49:26;;;;;;;83.57;32.40;;;0.20;99.90;;;;;;4182905;28;20074;-78
2021/01/17 03:51:27;;;;;;;88.50;32.72;;;0.20;99.90;;;;;;4166135;28;20036;-79
2021/01/17 03:53:27;;;;;;;85.88;33.30;;;0.20;99.90;;;;;;4182061;28;20045;-79
2021/01/17 03:55:28;;;;;;;94.38;33.63;;;0.20;99.90;;;;;;4180984;28;20044;-79
2021/01/17 03:57:28;;;;;;;85.07;32.75;;;0.20;99.90;;;;;;4180246;28;20036;-79
2021/01/17 03:59:29;;;;;;;99.38;34.78;;;0.20;99.90;;;;;;4180338;28;20492;-79
2021/01/17 04:01:29;;;;;;;92.68;33.45;;;0.20;99.90;;;;;;4180455;28;20037;-80
2021/01/17 04:03:30;;;;;;;110.30;35.15;;;0.20;99.90;;;;;;4180858;28;20037;-80
2021/01/17 04:05:30;;;;;;;90.22;32.72;;;0.20;99.90;;;;;;4182552;28;20037;-80
2021/01/17 04:07:31;;;;;;;100.50;35.42;;;0.20;99.90;;;;;;4183755;28;20392;-78
2021/01/17 04:09:31;;;;;;;91.10;31.55;;;0.20;99.90;;;;;;4181840;28;20439;-80
2021/01/17 04:11:32;;;;;;;96.40;34.10;;;0.20;99.90;;;;;;4181905;28;20037;-80
2021/01/17 04:13:33;;;;;;;87.68;31.52;;;0.20;99.90;;;;;;4181150;28;20377;-80
2021/01/17 04:15:34;;;;;;;86.05;30.60;;;0.20;99.90;;;;;;4180633;28;20037;-80
2021/01/17 04:17:34;;;;;;;86.97;33.35;;;0.20;99.90;;;;;;4168439;28;20370;-80
2021/01/17 04:19:35;;;;;;;86.68;30.13;;;0.20;99.90;;;;;;4162937;28;20095;-80
2021/01/17 04:21:36;;;;;;;92.38;32.70;;;0.20;99.90;;;;;;4180377;28;20037;-80
2021/01/17 04:23:36;;;;;;;88.75;31.95;;;0.20;99.90;;;;;;4181007;28;20087;-79
2021/01/17 04:25:37;;;;;;;79.95;31.05;;;0.20;99.90;;;;;;4184776;28;20433;-80
2021/01/17 04:27:37;;;;;;;82.93;31.88;;;0.20;99.90;;;;;;4185095;28;20025;-80
2021/01/17 04:29:38;;;;;;;88.07;33.80;;;0.20;99.90;;;;;;4184265;28;20540;-80
2021/01/17 04:31:39;;;;;;;92.20;32.72;;;0.20;99.90;;;;;;4182097;28;20037;-77
2021/01/17 04:33:40;;;;;;;93.72;31.27;;;0.20;99.90;;;;;;4170241;28;20030;-80
2021/01/17 04:35:41;;;;;;;95.70;33.25;;;0.20;99.90;;;;;;4180811;28;20033;-78
2021/01/17 04:37:41;;;;;;;89.43;30.60;;;0.20;99.90;;;;;;4162508;28;20042;-80
2021/01/17 04:39:44;;;;;;;82.57;31.70;;;0.20;99.90;;;;;;4179744;28;20499;-80
2021/01/17 04:41:46;;;;;;;88.82;32.55;;;0.20;99.90;;;;;;4169820;28;20064;-80
2021/01/17 04:43:58;;;;;;;93.00;32.15;;;0.20;99.90;;;;;;4161664;28;20444;-81
2021/01/17 04:46:00;;;;;;;103.95;32.90;;;0.20;99.90;;;;;;4179613;28;20088;-80
2021/01/17 04:48:03;;;;;;;102.38;32.13;;;0.20;99.90;;;;;;4179447;28;20079;-79
2021/01/17 04:50:06;;;;;;;89.72;33.05;;;0.20;99.90;;;;;;4179842;28;20072;-81
2021/01/17 04:52:07;;;;;;;;;;;0.20;99.90;;;;;;4179760;28;20091;-81
2021/01/17 04:54:08;;;;;;;100.60;32.05;;;0.20;99.90;;;;;;4179662;28;19924;-81
2021/01/17 04:56:24;;;;;;;97.63;33.67;;;0.20;99.90;;;;;;4179668;28;20029;-80
2021/01/17 04:58:32;;;;;;;107.47;31.45;;;0.20;99.90;;;;;;4162015;28;20030;-80
2021/01/17 05:00:33;;;;;;;82.95;30.05;;;0.20;99.90;;;;;;4179377;28;20033;-80
2021/01/17 05:02:42;;;;;;;101.07;34.15;;;0.20;99.90;;;;;;4179500;28;20530;-80
2021/01/17 05:04:46;;;;;;;105.10;35.42;;;0.20;99.90;;;;;;4179485;28;20037;-80
2021/01/17 05:06:56;;;;;;;97.78;33.10;;;0.20;99.90;;;;;;4179522;28;20036;-80
2021/01/17 05:08:58;;;;;;;105.25;34.08;;;0.20;99.90;;;;;;4179423;28;20037;-79
2021/01/17 05:11:07;;;;;;;93.28;33.53;;;0.20;99.90;;;;;;4179465;28;20036;-80
2021/01/17 05:13:12;;;;;;;99.93;34.17;;;0.20;99.90;;;;;;4179107;28;20029;-79
2021/01/17 05:15:18;;;;;;;107.68;35.60;;;0.20;99.90;;;;;;4161641;28;20083;-79
2021/01/17 05:17:23;;;;;;;101.97;33.72;;;0.20;99.90;;;;;;4179305;28;20163;-79
2021/01/17 05:19:24;;;;;;;118.30;34.22;;;0.20;99.90;;;;;;4179229;28;20116;-79
2021/01/17 05:21:27;;;;;;;111.95;34.50;;;0.20;99.90;;;;;;4179276;28;20028;-80
2021/01/17 05:23:35;;;;;;;99.72;32.42;;;0.20;99.90;;;;;;4161922;28;20025;-79
2021/01/17 05:25:35;;;;;;;104.57;31.35;;;0.30;99.90;;;;;;4161497;28;20560;-80
2021/01/17 05:27:37;;;;;;;99.57;33.55;;;0.30;99.90;;;;;;4161738;28;20029;-80
2021/01/17 05:29:38;;;;;;;90.88;33.72;;;0.30;99.90;;;;;;4179478;28;20071;-79
2021/01/17 05:31:40;;;;;;;104.32;33.00;;;0.30;99.90;;;;;;4161506;28;20123;-80
2021/01/17 05:33:41;;;;;;;109.85;33.05;;;0.30;99.90;;;;;;4179128;28;20033;-79
2021/01/17 05:35:42;;;;;;;109.90;35.13;;;0.30;99.90;;;;;;4168038;28;20035;-79
2021/01/17 05:37:53;;;;;;;86.80;30.58;;;0.30;99.90;;;;;;4179531;28;20044;-80
2021/01/17 05:40:02;;;;;;;95.47;31.60;;;0.30;99.90;;;;;;4161457;28;20481;-79
2021/01/17 05:42:08;;;;;;;97.20;33.10;;;0.30;99.90;;;;;;4165310;28;20033;-79
2021/01/17 05:44:09;;;;;;;93.30;30.48;;;0.30;99.90;;;;;;4179040;28;20033;-79
2021/01/17 05:46:12;;;;;;;88.70;29.42;;;0.40;99.90;;;;;;4178815;28;20079;-79
2021/01/17 05:48:12;;;;;;;96.32;31.25;;;0.40;99.90;;;;;;4161430;28;20129;-78
2021/01/17 05:50:13;;;;;;;90.30;31.33;;;0.40;99.90;;;;;;4161166;28;20026;-78
2021/01/17 05:52:16;;;;;;;111.85;33.03;;;0.40;99.90;;;;;;4161327;28;20030;-78
2021/01/17 05:54:23;;;;;;;85.63;29.15;;;0.40;99.90;;;;;;4178921;28;20044;-78
2021/01/17 05:56:30;;;;;;;94.55;30.08;;;0.40;99.90;;;;;;4181001;28;20087;-77
2021/01/17 05:58:31;;;;;;;85.45;29.55;;;0.40;99.90;;;;;;4182075;28;20480;-78
2021/01/17 06:00:33;;;;;;;86.60;28.98;;;0.40;99.90;;;;;;4181929;28;20040;-78
2021/01/17 06:02:35;;;;;;;116.60;32.58;;;0.50;99.90;;;;;;4182060;28;20502;-78
2021/01/17 06:04:37;;;;;;;99.30;32.53;;;0.50;99.90;;;;;;4181782;28;20039;-77
2021/01/17 06:06:40;;;;;;;99.03;31.13;;;0.50;99.90;;;;;;4182043;28;20040;-78
2021/01/17 06:08:43;;;;;;;99.65;32.83;;;0.50;99.90;;;;;;4164260;28;20116;-78
2021/01/17 06:10:45;;;;;;;94.22;31.77;;;0.50;99.90;;;;;;4181468;28;20397;-78
2021/01/17 06:12:51;;;;;;;103.82;32.00;;;0.50;99.90;;;;;;4181841;28;20025;-78
2021/01/17 06:15:08;;;;;;;98.65;31.05;;;0.50;99.90;;;;;;4181901;28;20029;-78
2021/01/17 06:17:09;;;;;;;103.10;33.63;;;0.50;99.90;;;;;;4180991;28;20040;-78
2021/01/17 06:19:12;;;;;;;95.60;32.70;;;0.50;99.90;;;;;;4164235;28;20056;-78
2021/01/17 06:21:16;;;;;;;108.47;32.73;;;0.60;99.90;;;;;;4181587;28;20025;-78
2021/01/17 06:23:20;;;;;;;105.55;33.85;;;0.60;99.90;;;;;;4181510;28;20055;-78
2021/01/17 06:25:26;;;;;;;114.95;35.40;;;0.60;99.90;;;;;;4181413;28;20792;-78
2021/01/17 06:27:28;;;;;;;119.00;34.75;;;0.60;99.90;;;;;;4181520;28;20120;-78
2021/01/17 06:29:44;;;;;;;113.60;34.38;;;0.60;99.90;;;;;;4181278;28;20534;-78
2021/01/17 06:31:46;;;;;;;109.60;34.83;;;0.60;99.90;;;;;;4181375;28;20426;-78
2021/01/17 06:33:48;;;;;;;109.47;34.05;;;0.60;99.90;;;;;;4181091;28;20040;-78
2021/01/17 06:35:49;;;;;;;129.15;35.42;;;0.60;99.90;;;;;;4181624;28;20094;-78
2021/01/17 06:37:50;;;;;;;133.15;38.17;;;0.60;99.90;;;;;;4181199;28;20063;-78
2021/01/17 06:39:52;;;;;;;115.32;34.67;;;0.60;99.90;;;;;;4181205;28;20439;-78
2021/01/17 06:41:57;;;;;;;130.02;36.58;;;0.60;99.90;;;;;;4181335;28;20049;-78
2021/01/17 06:44:06;;;;;;;135.52;38.78;;;0.60;99.90;;;;;;4181055;28;20131;-79
2021/01/17 06:46:07;;;;;;;136.13;37.42;;;0.60;99.90;;;;;;4162832;28;20053;-78
2021/01/17 06:48:08;;;;;;;148.63;39.10;;;0.60;99.90;;;;;;4181335;28;20025;-77
2021/01/17 06:50:20;;;;;;;144.43;39.05;;;0.60;99.90;;;;;;4174642;28;20030;-78
2021/01/17 06:52:22;;;;;;;153.02;40.50;;;0.60;99.90;;;;;;4175127;28;20410;-78
2021/01/17 06:54:31;;;;;;;140.95;37.90;;;0.60;99.90;;;;;;4180842;28;20123;-78
2021/01/17 06:56:33;;;;;;;161.57;39.92;;;0.70;99.90;;;;;;4159986;28;20026;-77
2021/01/17 06:58:34;;;;;;;147.43;39.53;;;0.70;99.90;;;;;;4177117;28;20104;-78
2021/01/17 07:00:35;;;;;;;148.05;41.40;;;0.70;99.90;;;;;;4180947;28;20059;-78
2021/01/17 07:02:39;;;;;;;155.55;40.42;;;0.70;99.90;;;;;;4181555;28;20033;-78
2021/01/17 07:04:53;;;;;;;169.27;41.08;;;0.70;99.90;;;;;;4163115;28;20029;-78
2021/01/17 07:07:06;;;;;;;159.25;40.47;;;0.70;99.90;;;;;;4180336;28;20086;-78
2021/01/17 07:09:19;;;;;;;175.45;41.25;;;0.70;99.90;;;;;;4181197;28;20033;-77
2021/01/17 07:11:26;;;;;;;171.85;40.75;;;0.70;99.90;;;;;;4182120;28;20083;-78
2021/01/17 07:13:33;;;;;;;168.15;40.17;;;0.70;99.90;;;;;;4183606;28;20037;-78
2021/01/17 07:15:39;;;;;;;165.60;41.45;;;0.70;99.90;;;;;;4161641;28;20376;-78
2021/01/17 07:17:43;;;;;;;164.05;39.50;;;0.70;99.90;;;;;;4178628;28;20121;-78
2021/01/17 07:19:49;;;;;;;169.55;43.45;;;0.70;99.90;;;;;;4179445;28;20037;-78
2021/01/17 07:21:51;;;;;;;175.60;42.65;;;0.80;99.90;;;;;;4180713;28;20468;-78
2021/01/17 07:24:01;;;;;;;186.88;44.50;;;0.80;99.90;;;;;;4163101;28;20492;-78
2021/01/17 07:26:09;;;;;;;188.90;43.75;;;0.80;99.90;;;;;;4181117;28;20090;-77
2021/01/17 07:28:22;;;;;;;176.65;47.40;;;0.80;99.90;;;;;;4180970;28;20087;-78
2021/01/17 07:30:59;;;;;;;212.50;44.45;;;0.80;99.90;;;;;;4174277;28;20057;-77
2021/01/17 07:33:03;;;;;;;180.82;42.03;;;0.80;99.90;;;;;;4176458;28;20045;-78
2021/01/17 07:35:12;;;;;;;190.73;42.90;;;0.80;99.90;;;;;;4153773;28;20025;-78
2021/01/17 07:37:17;;;;;;;215.13;45.85;;;0.80;99.90;;;;;;4168904;28;20132;-79
2021/01/17 07:39:23;;;;;;;188.82;43.85;;;0.80;99.90;;;;;;4151867;28;20161;-79
2021/01/17 07:41:28;;;;;;;188.82;45.15;;;0.80;99.90;;;;;;4172000;28;20112;-79
2021/01/17 07:43:42;;;;;;;190.25;45.58;;;0.80;99.90;;;;;;4171387;28;20056;-78
2021/01/17 07:45:43;;;;;;;169.35;45.03;;;0.80;99.90;;;;;;4166657;28;20026;-78
2021/01/17 07:47:46;;;;;;;168.82;43.47;;;0.90;99.90;;;;;;4147566;28;20034;-78
2021/01/17 07:49:48;;;;;;;175.05;46.90;;;0.90;99.90;;;;;;4168475;28;20098;-79
2021/01/17 07:51:50;;;;;;;190.77;45.20;;;0.90;99.90;;;;;;4153839;28;20028;-78
2021/01/17 07:53:56;;;;;;;171.52;41.10;;;0.90;99.90;;;;;;4165538;28;20113;-79
2021/01/17 07:56:02;;;;;;;180.38;42.15;;;1.00;99.90;;;;;;4164674;28;20496;-79
2021/01/17 07:58:04;;;;;;;177.05;43.00;;;1.10;99.90;;;;;;4163702;28;20079;-79
2021/01/17 08:00:06;;;;;;;169.70;43.13;;;1.10;99.90;;;;;;4156853;28;20474;-78
2021/01/17 08:02:08;;;;;;;171.38;44.95;;;1.10;99.90;;;;;;4179588;28;20039;-79
2021/01/17 08:04:16;;;;;;;179.80;44.05;;;1.20;99.90;;;;;;4174963;28;20128;-79
2021/01/17 08:06:16;;;;;;;170.73;42.72;;;1.20;99.90;;;;;;4160591;28;20456;-79
2021/01/17 08:08:35;;;;;;;161.05;42.65;;;1.20;99.90;;;;;;4159893;28;20092;-79
2021/01/17 08:10:36;;;;;;;156.95;42.17;;;1.30;99.90;;;;;;4177790;28;20033;-79
2021/01/17 08:12:41;;;;;;;129.30;39.85;;;1.30;99.90;;;;;;4178470;28;20704;-79
2021/01/17 08:14:42;;;;;;;143.70;43.58;;;1.40;99.90;;;;;;4179684;28;20420;-78
2021/01/17 08:17:08;;;;;;;144.82;41.85;;;1.40;99.90;;;;;;4179187;28;20028;-79
2021/01/17 08:19:08;;;;;;;164.02;44.55;;;1.50;99.90;;;;;;4177590;28;20139;-79
2021/01/17 08:21:29;;;;;;;158.13;40.00;;;1.50;99.90;;;;;;4178505;28;20025;-78
2021/01/17 08:23:30;;;;;;;152.63;39.78;;;1.50;99.90;;;;;;4148229;28;20572;-79
2021/01/17 08:25:46;;;;;;;176.88;43.63;;;1.60;99.90;;;;;;4178455;28;20033;-79
2021/01/17 08:27:46;;;;;;;148.05;42.95;;;1.60;99.90;;;;;;4179071;28;20036;-79
2021/01/17 08:30:20;;;;;;;137.68;38.17;;;1.70;99.90;;;;;;4161650;28;20033;-79
2021/01/17 08:32:49;;;;;;;160.10;40.80;;;1.70;99.90;;;;;;4122585;28;20029;-80
2021/01/17 08:34:49;;;;;;;162.20;42.05;;;1.80;99.90;;;;;;4175174;28;20037;-80
2021/01/17 08:36:51;;;;;;;143.52;41.88;;;1.90;99.90;;;;;;4160382;28;20112;-80
2021/01/17 08:38:51;;;;;;;159.63;40.63;;;1.90;99.90;;;;;;4161821;28;20049;-80
2021/01/17 08:40:56;;;;;;;132.90;42.75;;;2.00;99.90;;;;;;4179431;28;20083;-80
2021/01/17 08:42:57;;;;;;;165.98;40.75;;;2.10;99.90;;;;;;4174913;28;20132;-80
2021/01/17 08:44:59;;;;;;;154.02;41.92;;;2.10;99.90;;;;;;4156115;28;20034;-81
2021/01/17 08:47:20;;;;;;;134.43;37.97;;;2.10;99.90;;;;;;4178162;28;20365;-79
2021/01/17 08:49:36;;;;;;;146.13;43.05;;;2.30;99.90;;;;;;4179044;28;21083;-79
2021/01/17 08:51:37;;;;;;;124.53;39.78;;;2.40;99.90;;;;;;4179281;28;20037;-80
2021/01/17 08:53:38;;;;;;;115.35;39.35;;;2.40;99.90;;;;;;4177698;28;20055;-80
2021/01/17 08:55:40;;;;;;;115.38;40.28;;;2.50;99.90;;;;;;4161658;28;20037;-79
2021/01/17 08:57:44;;;;;;;118.28;39.95;;;2.50;99.90;;;;;;4160434;28;20132;-80
2021/01/17 08:59:44;;;;;;;115.40;40.03;;;2.60;99.90;;;;;;4159979;28;20034;-79
2021/01/17 09:01:59;;;;;;;110.07;39.28;;;2.70;99.90;;;;;;4179148;28;20025;-80
2021/01/17 09:04:00;;;;;;;109.45;37.85;;;2.80;99.90;;;;;;4177988;28;20029;-79
2021/01/17 09:06:22;;;;;;;100.30;35.30;;;2.90;99.90;;;;;;4178240;28;20036;-78
2021/01/17 09:08:23;;;;;;;97.80;36.72;;;3.00;99.90;;;;;;4160527;28;20037;-79
2021/01/17 09:10:23;;;;;;;86.03;33.28;;;3.10;99.90;;;;;;4161628;28;20033;-79
2021/01/17 09:12:28;;;;;;;94.55;35.28;;;3.20;99.90;;;;;;4160045;28;20516;-79
2021/01/17 09:14:30;;;;;;;86.68;32.42;;;3.20;99.90;;;;;;4177769;28;20033;-78
2021/01/17 09:16:34;;;;;;;90.18;36.47;;;3.30;99.90;;;;;;4175739;28;20032;-79
2021/01/17 09:18:39;;;;;;;91.18;38.55;;;3.40;99.90;;;;;;4167837;28;20033;-79
2021/01/17 09:20:44;;;;;;;78.50;36.53;;;3.40;99.90;;;;;;4177907;28;20040;-79
2021/01/17 09:22:48;;;;;;;88.38;37.17;;;3.50;99.90;;;;;;4177816;28;20029;-79
2021/01/17 09:24:50;;;;;;;94.40;35.47;;;3.60;99.90;;;;;;4175891;28;20025;-79
2021/01/17 09:26:57;;;;;;;77.47;32.10;;;3.70;99.90;;;;;;4178097;28;20072;-80
2021/01/17 09:28:57;;;;;;;66.82;29.90;;;3.70;99.90;;;;;;4161423;28;20040;-78
2021/01/17 09:31:02;;;;;;;72.30;32.08;;;3.80;99.90;;;;;;4179840;28;20029;-78
2021/01/17 09:33:03;;;;;;;69.93;29.33;;;3.90;99.90;;;;;;4161945;28;20057;-78
2021/01/17 09:35:05;;;;;;;72.32;29.35;;;3.90;99.90;;;;;;4161608;28;20029;-79
2021/01/17 09:37:11;;;;;;;64.70;26.40;;;3.90;99.90;;;;;;4167903;28;20021;-77
2021/01/17 09:39:12;;;;;;;66.55;27.27;;;3.90;99.90;;;;;;4181604;28;20116;-77
2021/01/17 09:41:21;;;;;;;66.18;25.65;;;3.90;99.90;;;;;;4182072;28;20067;-77
2021/01/17 09:43:22;;;;;;;55.70;22.80;;;3.90;99.90;;;;;;4163599;28;20100;-78
2021/01/17 09:45:22;;;;;;;52.65;20.25;;;3.90;99.90;;;;;;4179818;28;20033;-78
2021/01/17 09:47:25;;;;;;;55.88;21.33;;;3.90;99.90;;;;;;4160517;28;20029;-78
2021/01/17 09:49:28;;;;;;;59.88;19.50;;;4.00;99.90;;;;;;4162499;28;20056;-78
2021/01/17 09:51:32;;;;;;;55.65;20.77;;;4.10;99.90;;;;;;4145205;28;20030;-78
2021/01/17 09:53:33;;;;;;;60.05;18.85;;;4.10;99.90;;;;;;4173177;28;20075;-78
2021/01/17 09:55:41;;;;;;;61.17;19.52;;;4.00;99.90;;;;;;4181560;28;20495;-77
2021/01/17 09:57:42;;;;;;;56.20;19.27;;;4.00;99.90;;;;;;4179914;28;20032;-78
2021/01/17 09:59:43;;;;;;;71.88;18.75;;;4.00;99.90;;;;;;4162269;28;20481;-78
2021/01/17 10:01:44;;;;;;;59.28;17.35;;;4.00;99.90;;;;;;4180833;28;20045;-78
2021/01/17 10:03:49;;;;;;;57.10;20.95;;;4.00;99.90;;;;;;4163734;28;20040;-78
2021/01/17 10:05:52;;;;;;;67.13;20.10;;;4.00;99.90;;;;;;4162642;28;20226;-79
2021/01/17 10:08:03;;;;;;;50.03;17.55;;;4.00;99.90;;;;;;4181795;28;20051;-78
2021/01/17 10:10:10;;;;;;;62.30;18.73;;;4.10;99.90;;;;;;4179720;28;20037;-78
2021/01/17 10:12:11;;;;;;;59.42;18.25;;;4.00;99.90;;;;;;4179782;28;20032;-77
2021/01/17 10:14:20;;;;;;;60.72;19.63;;;4.00;99.90;;;;;;4179642;28;20395;-79
2021/01/17 10:16:24;;;;;;;69.18;20.75;;;3.90;99.90;;;;;;4179992;28;20160;-77
2021/01/17 10:18:24;;;;;;;62.38;19.63;;;4.00;99.90;;;;;;4181031;28;20037;-77
2021/01/17 10:20:38;;;;;;;56.83;18.55;;;4.00;99.90;;;;;;4164275;28;20033;-79
2021/01/17 10:22:39;;;;;;;54.25;16.23;;;4.10;99.90;;;;;;4175869;28;20041;-77
2021/01/17 10:24:41;;;;;;;60.65;17.48;;;4.10;99.90;;;;;;4181047;28;20025;-77
2021/01/17 10:26:42;;;;;;;56.78;16.42;;;4.20;99.90;;;;;;4162035;28;20034;-77
2021/01/17 10:28:42;;;;;;;71.15;17.35;;;4.30;99.90;;;;;;4175459;28;20547;-78
2021/01/17 10:30:43;;;;;;;56.95;18.55;;;4.30;99.90;;;;;;4158637;28;20056;-77
2021/01/17 10:32:45;;;;;;;59.20;19.40;;;4.40;99.90;;;;;;4157405;28;20038;-78